Time;durP1;ratioP1;P1;durP2;ratioP2;P2;SDS_P1;SDS_P2;PMS_P1;PMS_P2;Temp;Humidity;BMP_temperature;BMP_pressure;BME280_temperature;BME280_humidity;BME280_pressure;Samples;Min_cycle;Max_cycle;Signal;HPM_P1;HPM_P2
2023/01/09 00:00:14;;;;;;;2.60;2.40;;;;;;;;;;5056772;28;20177;-79
2023/01/09 00:02:39;;;;;;;2.80;2.60;;;;;;;;;;5043196;28;20222;-80
2023/01/09 00:05:09;;;;;;;4.93;3.40;;;;;;;;;;5071997;28;20205;-78
2023/01/09 00:07:34;;;;;;;3.53;3.23;;;;;;;;;;5059093;28;20180;-78
2023/01/09 00:09:59;;;;;;;3.20;2.83;;;;;;;;;;5059633;28;20188;-79
2023/01/09 00:12:25;;;;;;;2.70;2.50;;;;;;;;;;5057657;28;20275;-79
2023/01/09 00:14:50;;;;;;;3.40;3.00;;;;;;;;;;5057800;28;20186;-79
2023/01/09 00:17:15;;;;;;;3.60;3.30;;;;;;;;;;5059044;28;20195;-79
2023/01/09 00:19:40;;;;;;;3.20;2.90;;;;;;;;;;5056666;28;20265;-80
2023/01/09 00:22:08;;;;;;;3.27;2.97;;;;;;;;;;5058383;28;20635;-78
2023/01/09 00:24:33;;;;;;;3.13;2.83;;;;;;;;;;5059370;28;20286;-78
2023/01/09 00:26:58;;;;;;;3.70;2.87;;;;;;;;;;5059133;28;20172;-79
2023/01/09 00:29:24;;;;;;;2.70;2.40;;;;;;;;;;5068826;28;20186;-78
2023/01/09 00:31:49;;;;;;;3.73;2.70;;;;;;;;;;5058411;28;20212;-80
2023/01/09 00:34:14;;;;;;;3.13;2.83;;;;;;;;;;5064731;28;20402;-79
2023/01/09 00:36:39;;;;;;;3.30;2.67;;;;;;;;;;5070360;28;20206;-79
2023/01/09 00:39:04;;;;;;;3.20;2.90;;;;;;;;;;5066704;28;20251;-78
2023/01/09 00:41:53;;;;;;;3.50;2.90;;;;;;;;;;5069394;28;20187;-78
2023/01/09 00:44:31;;;;;;;3.00;2.70;;;;;;;;;;5048064;28;20193;-79
2023/01/09 00:47:01;;;;;;;3.03;2.73;;;;;;;;;;5056291;28;21223;-79
2023/01/09 00:49:33;;;;;;;3.20;2.90;;;;;;;;;;5057462;28;20284;-78
2023/01/09 00:51:58;;;;;;;3.13;2.77;;;;;;;;;;5056552;28;20193;-78
2023/01/09 00:54:23;;;;;;;2.70;2.50;;;;;;;;;;5058032;28;20184;-79
2023/01/09 00:56:49;;;;;;;4.40;2.63;;;;;;;;;;5058085;28;20228;-78
2023/01/09 00:59:14;;;;;;;3.07;2.77;;;;;;;;;;5066436;28;20436;-80
2023/01/09 01:01:39;;;;;;;2.40;2.20;;;;;;;;;;5059664;28;20261;-79
2023/01/09 01:07:37;;;;;;;2.37;2.17;;;;;;;;;;5056053;28;20241;-78
2023/01/09 01:09:34;;;;;;;3.03;2.40;;;;;;;;;;5057615;28;20202;-79
2023/01/09 01:11:59;;;;;;;1.80;1.50;;;;;;;;;;5058255;28;21379;-79
2023/01/09 01:14:25;;;;;;;1.20;1.10;;;;;;;;;;5058483;28;20181;-78
2023/01/09 01:16:50;;;;;;;0.93;0.90;;;;;;;;;;5056838;28;20179;-79
2023/01/09 01:19:16;;;;;;;1.27;0.70;;;;;;;;;;5059820;28;20266;-79
2023/01/09 01:21:41;;;;;;;0.50;0.50;;;;;;;;;;5057383;28;20486;-80
2023/01/09 01:24:06;;;;;;;0.53;0.53;;;;;;;;;;5057789;28;20172;-79
2023/01/09 01:26:31;;;;;;;0.43;0.43;;;;;;;;;;5058068;28;20188;-79
2023/01/09 01:28:57;;;;;;;0.70;0.40;;;;;;;;;;5057922;28;20221;-78
2023/01/09 01:31:22;;;;;;;0.30;0.30;;;;;;;;;;5057776;28;20173;-79
2023/01/09 01:33:47;;;;;;;0.27;0.23;;;;;;;;;;5054408;28;20188;-79
2023/01/09 01:36:16;;;;;;;0.10;0.10;;;;;;;;;;5053623;28;20302;-79
2023/01/09 01:38:41;;;;;;;0.20;0.20;;;;;;;;;;5055815;28;20211;-78
2023/01/09 01:41:06;;;;;;;0.20;0.20;;;;;;;;;;5055999;28;20187;-80
2023/01/09 01:44:07;;;;;;;0.20;0.20;;;;;;;;;;5057586;28;20253;-79
2023/01/09 01:46:32;;;;;;;0.60;0.47;;;;;;;;;;4988086;28;20194;-79
2023/01/09 01:49:01;;;;;;;0.20;0.20;;;;;;;;;;4989491;28;20295;-78
2023/01/09 01:51:28;;;;;;;0.20;0.20;;;;;;;;;;4990382;28;20202;-80
2023/01/09 01:53:56;;;;;;;0.20;0.20;;;;;;;;;;4986926;28;20194;-79
2023/01/09 01:56:21;;;;;;;0.20;0.20;;;;;;;;;;4987423;28;20288;-78
2023/01/09 01:58:49;;;;;;;2.25;0.38;;;;;;;;;;4988694;28;20213;-78
2023/01/09 02:01:15;;;;;;;0.33;0.30;;;;;;;;;;4986811;28;20230;-79
2023/01/09 02:03:41;;;;;;;0.30;0.30;;;;;;;;;;4987597;28;21381;-80
2023/01/09 02:06:07;;;;;;;0.30;0.30;;;;;;;;;;5003745;28;20263;-78
2023/01/09 02:08:32;;;;;;;0.30;0.30;;;;;;;;;;4986531;28;20201;-78
2023/01/09 02:10:58;;;;;;;0.30;0.30;;;;;;;;;;5004690;28;20190;-79
2023/01/09 02:13:24;;;;;;;0.40;0.40;;;;;;;;;;4987642;28;21941;-80
2023/01/09 02:15:55;;;;;;;0.60;0.30;;;;;;;;;;4983666;28;20190;-78
2023/01/09 02:18:32;;;;;;;0.50;0.33;;;;;;;;;;4990658;28;20227;-79
2023/01/09 02:21:16;;;;;;;0.47;0.47;;;;;;;;;;5031247;28;20197;-78
2023/01/09 02:23:41;;;;;;;0.40;0.40;;;;;;;;;;5054036;28;20192;-79
2023/01/09 02:26:32;;;;;;;0.50;0.50;;;;;;;;;;5054702;28;20209;-79
2023/01/09 02:28:57;;;;;;;0.67;0.50;;;;;;;;;;5056073;28;20183;-80
2023/01/09 02:31:29;;;;;;;0.60;0.60;;;;;;;;;;5054270;28;20218;-79
2023/01/09 02:34:09;;;;;;;1.47;0.50;;;;;;;;;;5067730;28;20253;-79
2023/01/09 02:36:49;;;;;;;0.30;0.30;;;;;;;;;;5056036;28;20232;-79
2023/01/09 02:39:21;;;;;;;0.40;0.40;;;;;;;;;;5056920;28;20286;-84
2023/01/09 02:41:57;;;;;;;0.30;0.30;;;;;;;;;;5054346;28;20223;-84
2023/01/09 02:44:23;;;;;;;0.23;0.23;;;;;;;;;;5056539;28;20180;-84
2023/01/09 02:47:03;;;;;;;0.30;0.30;;;;;;;;;;5062191;28;20221;-84
2023/01/09 02:49:29;;;;;;;0.33;0.33;;;;;;;;;;5072380;28;20212;-85
2023/01/09 02:52:08;;;;;;;0.30;0.30;;;;;;;;;;5062300;28;20183;-84
2023/01/09 02:54:47;;;;;;;0.57;0.20;;;;;;;;;;5059522;28;20179;-82
2023/01/09 02:57:26;;;;;;;0.30;0.30;;;;;;;;;;5071644;28;20184;-83
2023/01/09 02:59:55;;;;;;;0.27;0.27;;;;;;;;;;5059554;28;20188;-84
2023/01/09 03:02:39;;;;;;;0.30;0.30;;;;;;;;;;5059658;28;20229;-84
2023/01/09 03:05:19;;;;;;;0.30;0.30;;;;;;;;;;5061653;28;20179;-84
2023/01/09 03:07:53;;;;;;;1.20;0.57;;;;;;;;;;5061224;28;20193;-83
2023/01/09 03:10:22;;;;;;;0.70;0.70;;;;;;;;;;5071443;28;20177;-83
2023/01/09 03:12:50;;;;;;;1.37;0.77;;;;;;;;;;5062091;28;20190;-82
2023/01/09 03:15:17;;;;;;;0.47;0.47;;;;;;;;;;5057768;28;20207;-84
2023/01/09 03:17:44;;;;;;;0.73;0.40;;;;;;;;;;5059703;28;20190;-84
2023/01/09 03:20:11;;;;;;;0.30;0.30;;;;;;;;;;5069637;28;20317;-83
2023/01/09 03:22:38;;;;;;;0.20;0.20;;;;;;;;;;5061444;28;20188;-84
2023/01/09 03:25:03;;;;;;;0.20;0.20;;;;;;;;;;5060752;28;20185;-85
2023/01/09 03:27:28;;;;;;;0.33;0.33;;;;;;;;;;5060364;28;20194;-83
2023/01/09 03:29:55;;;;;;;0.10;0.10;;;;;;;;;;5061796;28;20195;-83
2023/01/09 03:32:20;;;;;;;0.10;0.10;;;;;;;;;;5060083;28;20275;-84
2023/01/09 03:34:45;;;;;;;0.47;0.20;;;;;;;;;;5061148;28;20355;-83
2023/01/09 03:37:11;;;;;;;1.03;0.30;;;;;;;;;;5061030;28;20205;-83
2023/01/09 03:39:36;;;;;;;0.40;0.30;;;;;;;;;;5061316;28;20211;-82
2023/01/09 03:42:01;;;;;;;0.10;0.10;;;;;;;;;;5062257;28;20180;-83
2023/01/09 03:44:27;;;;;;;0.20;0.20;;;;;;;;;;5061355;28;20203;-84
2023/01/09 03:46:52;;;;;;;1.30;0.20;;;;;;;;;;5060336;28;20283;-83
2023/01/09 03:49:18;;;;;;;0.10;0.10;;;;;;;;;;5058994;28;20187;-83
2023/01/09 03:51:43;;;;;;;0.20;0.20;;;;;;;;;;5059495;28;20181;-83
2023/01/09 03:54:09;;;;;;;0.10;0.10;;;;;;;;;;5071629;28;20191;-83
2023/01/09 03:56:35;;;;;;;1.40;0.50;;;;;;;;;;5060811;28;20210;-82
2023/01/09 03:59:00;;;;;;;0.37;0.37;;;;;;;;;;5060260;28;20500;-83
2023/01/09 04:01:25;;;;;;;0.40;0.40;;;;;;;;;;5058341;28;20183;-84
2023/01/09 04:03:50;;;;;;;0.40;0.40;;;;;;;;;;5060258;28;20188;-84
2023/01/09 04:06:15;;;;;;;0.40;0.40;;;;;;;;;;5058553;28;20181;-83
2023/01/09 04:08:41;;;;;;;0.50;0.50;;;;;;;;;;5061457;28;20252;-82
2023/01/09 04:11:06;;;;;;;0.37;0.37;;;;;;;;;;5060698;28;20191;-83
2023/01/09 04:13:31;;;;;;;1.13;0.53;;;;;;;;;;5061048;28;20244;-81
2023/01/09 04:15:56;;;;;;;0.67;0.67;;;;;;;;;;5059077;28;20197;-82
2023/01/09 04:18:21;;;;;;;0.60;0.60;;;;;;;;;;5060010;28;20228;-84
2023/01/09 04:20:47;;;;;;;1.40;1.13;;;;;;;;;;5061246;28;20171;-83
2023/01/09 04:23:12;;;;;;;0.73;0.73;;;;;;;;;;5060642;28;20177;-83
2023/01/09 04:25:37;;;;;;;0.77;0.70;;;;;;;;;;5060119;28;20225;-83
2023/01/09 04:28:03;;;;;;;2.47;0.60;;;;;;;;;;5059028;28;20190;-83
2023/01/09 04:30:28;;;;;;;0.60;0.60;;;;;;;;;;5059429;28;20215;-84
2023/01/09 04:32:53;;;;;;;0.90;0.90;;;;;;;;;;5059137;28;20219;-83
2023/01/09 04:35:19;;;;;;;1.63;0.83;;;;;;;;;;5058345;28;20233;-83
2023/01/09 04:37:44;;;;;;;1.77;1.23;;;;;;;;;;5060538;28;20198;-83
2023/01/09 04:40:10;;;;;;;1.93;0.90;;;;;;;;;;5059380;28;20235;-84
2023/01/09 04:42:36;;;;;;;0.93;0.93;;;;;;;;;;5067283;28;20178;-84
2023/01/09 04:45:01;;;;;;;1.03;0.80;;;;;;;;;;5059318;28;20200;-83
2023/01/09 04:47:26;;;;;;;1.10;0.70;;;;;;;;;;5059849;28;20171;-83
2023/01/09 04:49:52;;;;;;;3.43;1.13;;;;;;;;;;5058801;28;20255;-83
2023/01/09 04:52:17;;;;;;;1.33;1.03;;;;;;;;;;5058738;28;20181;-84
2023/01/09 04:54:42;;;;;;;0.90;0.90;;;;;;;;;;5059516;28;20198;-84
2023/01/09 04:57:07;;;;;;;1.20;1.10;;;;;;;;;;5058771;28;20275;-84
2023/01/09 04:59:33;;;;;;;1.70;1.33;;;;;;;;;;5057684;28;20211;-83
2023/01/09 05:01:58;;;;;;;0.90;0.90;;;;;;;;;;5058723;28;20278;-83
2023/01/09 05:04:24;;;;;;;1.60;1.00;;;;;;;;;;5068391;28;20195;-84
2023/01/09 05:06:49;;;;;;;1.30;1.20;;;;;;;;;;5059366;28;20179;-83
2023/01/09 05:09:14;;;;;;;2.20;0.70;;;;;;;;;;5057336;28;20187;-83
2023/01/09 05:11:39;;;;;;;2.60;0.90;;;;;;;;;;5069820;28;20183;-83
2023/01/09 05:14:05;;;;;;;1.13;0.87;;;;;;;;;;5057948;28;20272;-84
2023/01/09 05:16:30;;;;;;;2.23;0.87;;;;;;;;;;5058688;28;20176;-83
2023/01/09 05:18:56;;;;;;;1.43;1.03;;;;;;;;;;5056618;28;20198;-84
2023/01/09 05:21:22;;;;;;;0.97;0.87;;;;;;;;;;5061001;28;20193;-84
2023/01/09 05:23:47;;;;;;;2.37;1.00;;;;;;;;;;5056308;28;20178;-83
2023/01/09 05:26:12;;;;;;;1.27;0.97;;;;;;;;;;5058270;28;20185;-82
2023/01/09 05:28:38;;;;;;;1.57;1.10;;;;;;;;;;5066810;28;20219;-82
2023/01/09 05:31:03;;;;;;;1.97;0.90;;;;;;;;;;5058189;28;20192;-81
2023/01/09 05:33:28;;;;;;;2.70;1.10;;;;;;;;;;5065481;28;20182;-84
2023/01/09 05:35:53;;;;;;;0.90;0.90;;;;;;;;;;5085017;28;20233;-84
2023/01/09 05:38:19;;;;;;;2.10;1.33;;;;;;;;;;5065173;28;20205;-84
2023/01/09 05:40:44;;;;;;;2.33;1.27;;;;;;;;;;5057000;28;20250;-84
2023/01/09 05:43:09;;;;;;;3.13;1.27;;;;;;;;;;5057306;28;20176;-82
2023/01/09 05:45:34;;;;;;;2.57;0.80;;;;;;;;;;5057442;28;20263;-84
2023/01/09 05:48:00;;;;;;;6.23;1.23;;;;;;;;;;5057699;28;20185;-83
2023/01/09 05:50:25;;;;;;;1.50;0.80;;;;;;;;;;5056848;28;20190;-81
2023/01/09 05:52:50;;;;;;;4.93;2.40;;;;;;;;;;5056679;28;20192;-84
2023/01/09 05:55:16;;;;;;;1.13;1.03;;;;;;;;;;5058021;28;20196;-84
2023/01/09 05:57:41;;;;;;;2.27;1.40;;;;;;;;;;5057069;28;20173;-84
2023/01/09 06:00:06;;;;;;;2.60;1.27;;;;;;;;;;5056402;28;20239;-83
2023/01/09 06:02:31;;;;;;;3.37;1.30;;;;;;;;;;5055578;28;20310;-82
2023/01/09 06:04:57;;;;;;;1.50;1.10;;;;;;;;;;5056262;28;20224;-83
2023/01/09 06:07:22;;;;;;;2.43;1.20;;;;;;;;;;5054902;28;20186;-84
2023/01/09 06:09:47;;;;;;;3.53;1.07;;;;;;;;;;5056178;28;20177;-85
2023/01/09 06:12:12;;;;;;;4.37;1.10;;;;;;;;;;5057496;28;20204;-84
2023/01/09 06:14:37;;;;;;;1.27;1.13;;;;;;;;;;5056939;28;20181;-84
2023/01/09 06:17:03;;;;;;;2.47;1.07;;;;;;;;;;5056431;28;20185;-85
2023/01/09 06:19:28;;;;;;;3.10;1.30;;;;;;;;;;5056115;28;20212;-83
2023/01/09 06:21:53;;;;;;;1.60;1.30;;;;;;;;;;5045815;28;20215;-84
2023/01/09 06:24:18;;;;;;;3.07;1.10;;;;;;;;;;5048447;28;20175;-84
2023/01/09 06:26:43;;;;;;;3.60;1.63;;;;;;;;;;5049717;28;20177;-82
2023/01/09 06:29:09;;;;;;;2.63;0.87;;;;;;;;;;5057018;28;20187;-84
2023/01/09 06:31:34;;;;;;;4.10;1.27;;;;;;;;;;5043673;28;20217;-82
2023/01/09 06:33:59;;;;;;;5.43;2.03;;;;;;;;;;5052946;28;20372;-84
2023/01/09 06:36:25;;;;;;;6.17;2.13;;;;;;;;;;5059354;28;20206;-84
2023/01/09 06:38:50;;;;;;;4.07;1.30;;;;;;;;;;5044403;28;20209;-85
2023/01/09 06:41:15;;;;;;;5.17;1.50;;;;;;;;;;5056674;28;20258;-83
2023/01/09 06:43:40;;;;;;;2.53;1.17;;;;;;;;;;5065721;28;20200;-81
2023/01/09 06:46:06;;;;;;;3.00;2.07;;;;;;;;;;5046969;28;20209;-83
2023/01/09 06:48:31;;;;;;;4.47;2.50;;;;;;;;;;5044806;28;20185;-83
2023/01/09 06:50:57;;;;;;;10.43;1.90;;;;;;;;;;5046192;28;20191;-83
2023/01/09 06:53:22;;;;;;;4.90;1.63;;;;;;;;;;5042602;28;20190;-84
2023/01/09 06:55:47;;;;;;;2.93;2.63;;;;;;;;;;5045345;28;21193;-83
2023/01/09 06:58:13;;;;;;;7.20;1.80;;;;;;;;;;5056021;28;20195;-83
2023/01/09 07:00:38;;;;;;;2.67;1.53;;;;;;;;;;5057617;28;20188;-84
2023/01/09 07:03:03;;;;;;;5.20;1.87;;;;;;;;;;5066670;28;20232;-83
2023/01/09 07:05:29;;;;;;;5.00;2.33;;;;;;;;;;5055036;28;20296;-82
2023/01/09 07:07:55;;;;;;;5.53;3.33;;;;;;;;;;5066701;28;20174;-84
2023/01/09 07:10:21;;;;;;;5.37;2.93;;;;;;;;;;5068465;28;20185;-85
2023/01/09 07:12:46;;;;;;;6.33;3.27;;;;;;;;;;5063328;28;20167;-84
2023/01/09 07:15:11;;;;;;;3.20;1.93;;;;;;;;;;5058376;28;20185;-81
2023/01/09 07:17:36;;;;;;;4.87;2.97;;;;;;;;;;5047270;28;20208;-82
2023/01/09 07:20:02;;;;;;;7.93;2.13;;;;;;;;;;5047189;28;20265;-82
2023/01/09 07:22:27;;;;;;;4.97;2.57;;;;;;;;;;5045891;28;20177;-84
2023/01/09 07:24:52;;;;;;;7.10;3.53;;;;;;;;;;5044984;28;21983;-82
2023/01/09 07:27:17;;;;;;;3.37;2.20;;;;;;;;;;5042841;28;20182;-82
2023/01/09 07:29:43;;;;;;;14.27;9.23;;;;;;;;;;5047307;28;20177;-84
2023/01/09 07:32:08;;;;;;;4.77;3.67;;;;;;;;;;5076794;28;20173;-84
2023/01/09 07:34:33;;;;;;;6.60;3.67;;;;;;;;;;5077104;28;20212;-85
2023/01/09 07:36:58;;;;;;;4.40;1.60;;;;;;;;;;5070538;28;20194;-84
2023/01/09 07:39:24;;;;;;;4.80;2.47;;;;;;;;;;5070058;28;21154;-83
2023/01/09 07:41:49;;;;;;;2.30;1.50;;;;;;;;;;5083788;28;20365;-84
2023/01/09 07:44:14;;;;;;;3.33;1.20;;;;;;;;;;5080544;28;20182;-83
2023/01/09 07:46:40;;;;;;;3.17;1.30;;;;;;;;;;5050881;28;20201;-85
2023/01/09 07:49:05;;;;;;;2.10;1.30;;;;;;;;;;5045681;28;20170;-85
2023/01/09 07:51:30;;;;;;;1.97;1.13;;;;;;;;;;5050788;28;20317;-84
2023/01/09 07:53:56;;;;;;;2.57;1.87;;;;;;;;;;5052607;28;20181;-85
2023/01/09 07:56:21;;;;;;;4.13;2.13;;;;;;;;;;5048578;28;20201;-84
2023/01/09 07:58:46;;;;;;;2.30;1.33;;;;;;;;;;5059574;28;20207;-83
2023/01/09 08:01:11;;;;;;;2.90;1.10;;;;;;;;;;5062780;28;20185;-83
2023/01/09 08:03:37;;;;;;;4.87;1.20;;;;;;;;;;5072499;28;20235;-83
2023/01/09 08:06:03;;;;;;;3.00;1.00;;;;;;;;;;5070794;28;20208;-84
2023/01/09 08:08:28;;;;;;;1.97;1.00;;;;;;;;;;5076189;28;20170;-84
2023/01/09 08:10:53;;;;;;;4.07;1.03;;;;;;;;;;5069102;28;20181;-83
2023/01/09 08:13:18;;;;;;;1.60;0.90;;;;;;;;;;5078411;28;20178;-83
2023/01/09 08:15:43;;;;;;;2.80;1.23;;;;;;;;;;5068422;28;20203;-84
2023/01/09 08:18:09;;;;;;;1.20;1.10;;;;;;;;;;5064956;28;20225;-83
2023/01/09 08:20:34;;;;;;;1.40;1.00;;;;;;;;;;5082641;28;20171;-84
2023/01/09 08:22:59;;;;;;;2.97;1.00;;;;;;;;;;5073304;28;20185;-83
2023/01/09 08:25:24;;;;;;;2.23;1.00;;;;;;;;;;5069017;28;20270;-84
2023/01/09 08:27:50;;;;;;;2.23;0.80;;;;;;;;;;5070955;28;20308;-83
2023/01/09 08:30:16;;;;;;;1.90;0.80;;;;;;;;;;5066648;28;20166;-83
2023/01/09 08:32:41;;;;;;;2.00;0.63;;;;;;;;;;5088206;28;20167;-84
2023/01/09 08:35:07;;;;;;;1.40;0.90;;;;;;;;;;5065691;28;20223;-83
2023/01/09 08:37:32;;;;;;;1.77;0.90;;;;;;;;;;5072997;28;20171;-83
2023/01/09 08:39:58;;;;;;;1.33;1.00;;;;;;;;;;5069279;28;20212;-83
2023/01/09 08:47:52;;;;;;;3.23;1.43;;;;;;;;;;5077223;28;20179;-83
2023/01/09 08:50:18;;;;;;;2.20;1.10;;;;;;;;;;5072249;28;20174;-83
2023/01/09 08:52:43;;;;;;;3.23;1.00;;;;;;;;;;5069487;28;20167;-84
2023/01/09 08:55:08;;;;;;;1.47;1.20;;;;;;;;;;5070042;28;20204;-83
2023/01/09 08:57:33;;;;;;;2.77;1.30;;;;;;;;;;5074861;28;20187;-81
2023/01/09 08:59:59;;;;;;;0.60;0.60;;;;;;;;;;5065599;28;20208;-84
2023/01/09 09:02:24;;;;;;;1.07;1.00;;;;;;;;;;5072007;28;20254;-83
2023/01/09 09:04:51;;;;;;;1.20;0.90;;;;;;;;;;5066545;28;20302;-84
2023/01/09 09:07:20;;;;;;;2.43;1.13;;;;;;;;;;5067697;28;20200;-83
2023/01/09 09:09:45;;;;;;;3.23;1.00;;;;;;;;;;5073518;28;20175;-83
2023/01/09 09:12:10;;;;;;;2.23;1.37;;;;;;;;;;5080636;28;20204;-82
2023/01/09 09:17:19;;;;;;;5.20;4.17;;;;;;;;;;5073112;28;20205;-84
2023/01/09 09:19:45;;;;;;;4.77;3.53;;;;;;;;;;5079138;28;20202;-82
2023/01/09 09:22:10;;;;;;;11.33;6.90;;;;;;;;;;5067875;28;20195;-83
2023/01/09 09:24:35;;;;;;;2.40;2.10;;;;;;;;;;5077103;28;20228;-83
2023/01/09 09:27:00;;;;;;;2.10;1.47;;;;;;;;;;5068592;28;20233;-82
2023/01/09 09:29:25;;;;;;;3.53;1.93;;;;;;;;;;5067648;28;20191;-83
2023/01/09 09:31:51;;;;;;;5.87;3.20;;;;;;;;;;5069647;28;20254;-83
2023/01/09 09:34:16;;;;;;;5.33;1.63;;;;;;;;;;5067806;28;20283;-83
2023/01/09 09:36:41;;;;;;;3.80;1.30;;;;;;;;;;5065469;28;20284;-80
2023/01/09 09:39:07;;;;;;;4.77;1.83;;;;;;;;;;5076873;28;20342;-80
2023/01/09 09:44:42;;;;;;;1.83;1.00;;;;;;;;;;5076114;28;20203;-79
2023/01/09 09:47:10;;;;;;;3.20;0.77;;;;;;;;;;5064322;28;20195;-79
2023/01/09 09:49:44;;;;;;;0.60;0.53;;;;;;;;;;5070085;28;20178;-80
2023/01/09 09:52:22;;;;;;;3.13;1.23;;;;;;;;;;5066863;28;20201;-81
2023/01/09 09:54:48;;;;;;;1.37;0.80;;;;;;;;;;5067672;28;20174;-79
2023/01/09 09:57:16;;;;;;;3.00;1.10;;;;;;;;;;5075265;28;20186;-80
2023/01/09 09:59:42;;;;;;;1.10;0.87;;;;;;;;;;5065484;28;20207;-80
2023/01/09 10:02:24;;;;;;;1.20;0.90;;;;;;;;;;5068409;28;20221;-80
2023/01/09 10:04:55;;;;;;;4.47;1.77;;;;;;;;;;5068353;28;20181;-80
2023/01/09 10:07:27;;;;;;;1.30;1.20;;;;;;;;;;5074050;28;20414;-80
2023/01/09 10:09:59;;;;;;;4.20;1.27;;;;;;;;;;5068014;28;20194;-80
2023/01/09 10:12:30;;;;;;;1.20;1.10;;;;;;;;;;5072507;28;20190;-80
2023/01/09 10:14:57;;;;;;;1.90;1.80;;;;;;;;;;5074135;28;20198;-80
2023/01/09 10:17:22;;;;;;;3.33;1.07;;;;;;;;;;5074236;28;20189;-80
2023/01/09 10:20:06;;;;;;;2.60;1.30;;;;;;;;;;5071376;28;20238;-80
2023/01/09 10:22:38;;;;;;;9.23;5.00;;;;;;;;;;5069727;28;20183;-79
2023/01/09 10:25:22;;;;;;;4.23;1.13;;;;;;;;;;5077610;28;20185;-80
2023/01/09 10:27:57;;;;;;;2.40;1.40;;;;;;;;;;5069777;28;20171;-80
2023/01/09 10:30:34;;;;;;;2.63;1.37;;;;;;;;;;5069629;28;20202;-80
2023/01/09 10:33:02;;;;;;;1.60;1.10;;;;;;;;;;5070171;28;20178;-80
2023/01/09 10:35:44;;;;;;;1.40;0.80;;;;;;;;;;5066973;28;20337;-80
2023/01/09 10:38:12;;;;;;;3.80;1.17;;;;;;;;;;5075602;28;20212;-80
2023/01/09 10:40:49;;;;;;;1.40;0.80;;;;;;;;;;5076812;28;20175;-80
2023/01/09 10:43:25;;;;;;;0.63;0.63;;;;;;;;;;5064966;28;20180;-80
2023/01/09 10:45:52;;;;;;;1.60;1.00;;;;;;;;;;5075086;28;20182;-80
2023/01/09 10:48:21;;;;;;;2.40;0.70;;;;;;;;;;5066942;28;20271;-80
2023/01/09 10:50:46;;;;;;;2.60;0.97;;;;;;;;;;5069596;28;20187;-80
2023/01/09 10:53:15;;;;;;;3.80;1.30;;;;;;;;;;5066219;28;20183;-80
2023/01/09 10:55:46;;;;;;;1.77;1.63;;;;;;;;;;5075288;28;20187;-80
2023/01/09 10:58:12;;;;;;;0.70;0.70;;;;;;;;;;5070072;28;20204;-80
2023/01/09 11:00:38;;;;;;;4.50;1.30;;;;;;;;;;5065524;28;20179;-80
2023/01/09 11:03:04;;;;;;;2.43;0.80;;;;;;;;;;5084906;28;20175;-80
2023/01/09 11:05:29;;;;;;;1.93;1.00;;;;;;;;;;5067935;28;20179;-80
2023/01/09 11:08:04;;;;;;;1.93;1.20;;;;;;;;;;5082613;28;20228;-80
2023/01/09 11:10:55;;;;;;;1.30;1.10;;;;;;;;;;5081205;28;20182;-80
2023/01/09 11:13:21;;;;;;;2.33;0.73;;;;;;;;;;5074515;28;20194;-80
2023/01/09 11:16:03;;;;;;;3.67;2.00;;;;;;;;;;5072947;28;20203;-80
2023/01/09 11:18:28;;;;;;;2.27;1.30;;;;;;;;;;5074830;28;20195;-80
2023/01/09 11:20:54;;;;;;;0.90;0.90;;;;;;;;;;5074192;28;20185;-80
2023/01/09 11:23:22;;;;;;;1.90;0.80;;;;;;;;;;5081068;28;20170;-80
2023/01/09 11:25:52;;;;;;;2.07;1.00;;;;;;;;;;5064043;28;20215;-80
2023/01/09 11:28:17;;;;;;;3.80;0.90;;;;;;;;;;5071955;28;20215;-80
2023/01/09 11:30:53;;;;;;;0.80;0.60;;;;;;;;;;5087998;28;20201;-80
2023/01/09 11:33:20;;;;;;;1.30;1.00;;;;;;;;;;5068979;28;20189;-80
2023/01/09 11:36:06;;;;;;;3.33;0.83;;;;;;;;;;5065928;28;20231;-80
2023/01/09 11:38:43;;;;;;;1.80;0.80;;;;;;;;;;5060786;28;20208;-80
2023/01/09 11:41:14;;;;;;;1.63;0.80;;;;;;;;;;5075224;28;20187;-80
2023/01/09 11:43:39;;;;;;;0.80;0.50;;;;;;;;;;5079049;28;20183;-80
2023/01/09 11:46:05;;;;;;;2.57;1.00;;;;;;;;;;5078532;28;20185;-80
2023/01/09 11:48:33;;;;;;;2.20;0.70;;;;;;;;;;5081209;28;20193;-80
2023/01/09 11:50:59;;;;;;;1.03;0.80;;;;;;;;;;5069400;28;20223;-80
2023/01/09 11:53:25;;;;;;;1.43;0.83;;;;;;;;;;5074360;28;20204;-80
2023/01/09 11:55:54;;;;;;;0.80;0.67;;;;;;;;;;5072878;28;20181;-80
2023/01/09 11:58:20;;;;;;;2.27;1.23;;;;;;;;;;5069321;28;20211;-80
2023/01/09 12:01:04;;;;;;;1.90;0.90;;;;;;;;;;5072778;28;20186;-80
2023/01/09 12:03:39;;;;;;;1.73;0.80;;;;;;;;;;5070879;28;20176;-80
2023/01/09 12:06:16;;;;;;;2.00;1.77;;;;;;;;;;5072095;28;20265;-80
2023/01/09 12:09:07;;;;;;;2.17;1.00;;;;;;;;;;5072810;28;20417;-80
2023/01/09 12:11:42;;;;;;;1.43;1.30;;;;;;;;;;5066646;28;20201;-80
2023/01/09 12:14:24;;;;;;;1.90;0.60;;;;;;;;;;5069862;28;20184;-80
2023/01/09 12:16:58;;;;;;;1.07;0.90;;;;;;;;;;5071755;28;20183;-80
2023/01/09 12:19:26;;;;;;;0.40;0.40;;;;;;;;;;5080643;28;20269;-80
2023/01/09 12:22:01;;;;;;;0.60;0.53;;;;;;;;;;5075046;28;20199;-80
2023/01/09 12:24:38;;;;;;;2.17;1.00;;;;;;;;;;5072139;28;20184;-81
2023/01/09 12:27:15;;;;;;;1.57;1.23;;;;;;;;;;5075805;28;20170;-80
2023/01/09 12:29:55;;;;;;;1.70;1.00;;;;;;;;;;5072805;28;20500;-81
2023/01/09 12:32:29;;;;;;;1.80;0.57;;;;;;;;;;5076283;28;20187;-80
2023/01/09 12:35:13;;;;;;;1.10;1.00;;;;;;;;;;5075927;28;20328;-80
2023/01/09 12:37:45;;;;;;;1.23;0.43;;;;;;;;;;5067805;28;20195;-80
2023/01/09 12:40:10;;;;;;;0.50;0.50;;;;;;;;;;5071166;28;20203;-80
2023/01/09 12:42:35;;;;;;;0.50;0.50;;;;;;;;;;5075725;28;20234;-79
2023/01/09 12:45:04;;;;;;;1.03;0.70;;;;;;;;;;5067416;28;20175;-80
2023/01/09 12:47:39;;;;;;;1.30;0.50;;;;;;;;;;5068214;28;20246;-80
2023/01/09 12:50:17;;;;;;;0.70;0.53;;;;;;;;;;5076016;28;20173;-80
2023/01/09 12:52:48;;;;;;;3.90;1.10;;;;;;;;;;5090200;28;20191;-80
2023/01/09 12:55:16;;;;;;;6.90;3.50;;;;;;;;;;5078791;28;20195;-80
2023/01/09 12:57:43;;;;;;;2.10;1.73;;;;;;;;;;5072495;28;20200;-80
2023/01/09 13:00:15;;;;;;;3.63;2.63;;;;;;;;;;5068277;28;20295;-80
2023/01/09 13:03:02;;;;;;;13.97;7.80;;;;;;;;;;5072915;28;20259;-80
2023/01/09 13:05:40;;;;;;;8.73;5.00;;;;;;;;;;5077055;28;20208;-80
2023/01/09 13:08:28;;;;;;;0.90;0.80;;;;;;;;;;5073334;28;20183;-80
2023/01/09 13:11:01;;;;;;;35.00;18.70;;;;;;;;;;5075226;28;20177;-80
2023/01/09 13:13:48;;;;;;;1.40;1.20;;;;;;;;;;5069428;28;20175;-80
2023/01/09 13:16:19;;;;;;;0.50;0.50;;;;;;;;;;5074003;28;20180;-80
2023/01/09 13:18:46;;;;;;;28.47;18.13;;;;;;;;;;5071325;28;20216;-80
2023/01/09 13:21:12;;;;;;;4.37;3.10;;;;;;;;;;5073889;28;20182;-80
2023/01/09 13:23:42;;;;;;;3.03;2.57;;;;;;;;;;5076552;28;20177;-79
2023/01/09 13:26:20;;;;;;;5.33;4.80;;;;;;;;;;5077070;28;20171;-80
2023/01/09 13:28:49;;;;;;;0.73;0.60;;;;;;;;;;5070456;28;20188;-79
2023/01/09 13:31:49;;;;;;;0.90;0.90;;;;;;;;;;5072570;28;20202;-80
2023/01/09 13:34:20;;;;;;;0.70;0.60;;;;;;;;;;5016170;28;20340;-80
2023/01/09 13:36:47;;;;;;;1.57;1.33;;;;;;;;;;5010473;28;20265;-79
2023/01/09 13:39:41;;;;;;;1.37;1.00;;;;;;;;;;5017283;28;20211;-79
2023/01/09 13:45:09;;;;;;;1.43;0.90;;;;;;;;;;5030825;28;20268;-79
2023/01/09 13:47:34;;;;;;;1.47;1.00;;;;;;;;;;5013644;28;20206;-80
2023/01/09 13:50:04;;;;;;;1.00;0.87;;;;;;;;;;5005780;28;20215;-79
2023/01/09 13:52:31;;;;;;;1.97;1.30;;;;;;;;;;5015441;28;20199;-80
2023/01/09 13:54:57;;;;;;;0.80;0.70;;;;;;;;;;5015392;28;20189;-80
2023/01/09 13:57:27;;;;;;;3.00;1.13;;;;;;;;;;5008163;28;20184;-80
2023/01/09 13:59:56;;;;;;;1.70;1.50;;;;;;;;;;5013435;28;20207;-79
2023/01/09 14:02:48;;;;;;;3.43;2.37;;;;;;;;;;5008343;28;20468;-80
2023/01/09 14:05:14;;;;;;;3.00;2.10;;;;;;;;;;5010245;28;20175;-80
2023/01/09 14:07:40;;;;;;;0.97;0.83;;;;;;;;;;5024670;28;20189;-79
2023/01/09 14:10:24;;;;;;;2.63;1.00;;;;;;;;;;5071660;28;20203;-79
2023/01/09 14:12:50;;;;;;;1.50;1.00;;;;;;;;;;5072990;28;20202;-80
2023/01/09 14:15:24;;;;;;;3.03;1.43;;;;;;;;;;5073174;28;20209;-80
2023/01/09 14:17:57;;;;;;;5.10;2.30;;;;;;;;;;5065977;28;20188;-80
2023/01/09 14:20:24;;;;;;;1.30;0.73;;;;;;;;;;5077000;28;20177;-79
2023/01/09 14:22:54;;;;;;;2.70;2.10;;;;;;;;;;5071148;28;20203;-80
2023/01/09 14:25:22;;;;;;;2.57;1.60;;;;;;;;;;5072175;28;20174;-80
2023/01/09 14:27:53;;;;;;;3.20;1.27;;;;;;;;;;5070636;28;20203;-79
2023/01/09 14:30:24;;;;;;;3.27;1.07;;;;;;;;;;5070071;28;20186;-80
2023/01/09 14:33:02;;;;;;;2.00;1.17;;;;;;;;;;5076616;28;20270;-80
2023/01/09 14:35:38;;;;;;;2.60;1.00;;;;;;;;;;5081584;28;20218;-79
2023/01/09 14:38:09;;;;;;;2.60;1.57;;;;;;;;;;5065222;28;20209;-79
2023/01/09 14:40:34;;;;;;;1.27;1.17;;;;;;;;;;5068733;28;20187;-80
2023/01/09 14:43:04;;;;;;;2.63;1.00;;;;;;;;;;5078203;28;20269;-79
2023/01/09 14:45:30;;;;;;;1.70;1.30;;;;;;;;;;5076189;28;20170;-79
2023/01/09 14:47:58;;;;;;;1.30;1.00;;;;;;;;;;5073398;28;20268;-80
2023/01/09 14:50:34;;;;;;;4.17;1.70;;;;;;;;;;5079327;28;20178;-80
2023/01/09 14:53:03;;;;;;;1.97;1.30;;;;;;;;;;5078963;28;20174;-80
2023/01/09 14:55:33;;;;;;;0.83;0.70;;;;;;;;;;5080279;28;20356;-79
2023/01/09 14:58:17;;;;;;;1.50;1.40;;;;;;;;;;5060765;28;20184;-80
2023/01/09 15:00:54;;;;;;;1.87;1.20;;;;;;;;;;5070236;28;20175;-79
2023/01/09 15:03:21;;;;;;;1.10;1.00;;;;;;;;;;5074893;28;20179;-79
2023/01/09 15:05:47;;;;;;;2.73;1.03;;;;;;;;;;5069954;28;20184;-80
2023/01/09 15:08:17;;;;;;;2.93;1.53;;;;;;;;;;5080788;28;20201;-79